Time;durP1;ratioP1;P1;durP2;ratioP2;P2;SDS_P1;SDS_P2;PMS_P1;PMS_P2;Temp;Humidity;BMP_temperature;BMP_pressure;BME280_temperature;BME280_humidity;BME280_pressure;Samples;Min_cycle;Max_cycle;Signal;HPM_P1;HPM_P2
2022/01/07 00:01:23;;;;;;;11.30;5.40;;;;;;;1.98;94.87;101429.00;5031779;28;20470;-60
2022/01/07 00:03:51;;;;;;;12.67;5.80;;;;;;;1.99;94.11;101425.66;5028983;28;20026;-61
2022/01/07 00:06:17;;;;;;;13.57;5.30;;;;;;;1.99;93.78;101425.66;5022607;28;20091;-60
2022/01/07 00:08:42;;;;;;;14.07;4.70;;;;;;;2.02;93.31;101418.22;5023835;28;20435;-61
2022/01/07 00:11:07;;;;;;;10.60;5.53;;;;;;;2.03;93.63;101423.44;5028721;28;20378;-61
2022/01/07 00:13:33;;;;;;;8.73;5.17;;;;;;;2.04;92.95;101411.56;5025052;28;20081;-61
2022/01/07 00:15:58;;;;;;;13.70;5.23;;;;;;;2.04;93.91;101409.00;5029816;28;20025;-60
2022/01/07 00:18:24;;;;;;;7.87;4.30;;;;;;;2.03;94.86;101403.00;5027477;28;20044;-61
2022/01/07 00:20:50;;;;;;;9.47;4.43;;;;;;;2.01;95.17;101402.00;5031674;28;20429;-61
2022/01/07 00:23:16;;;;;;;10.63;4.83;;;;;;;1.99;95.64;101400.09;5031269;28;20491;-61
2022/01/07 00:25:41;;;;;;;9.87;4.70;;;;;;;1.98;95.28;101400.88;5031443;28;20117;-61
2022/01/07 00:28:07;;;;;;;9.70;4.80;;;;;;;1.97;96.15;101386.31;5023860;28;20071;-61
2022/01/07 00:30:33;;;;;;;8.03;4.83;;;;;;;1.94;96.22;101396.31;5024681;28;20397;-60
2022/01/07 00:32:59;;;;;;;8.57;4.30;;;;;;;1.95;95.97;101388.75;5025408;28;20112;-61
2022/01/07 00:35:24;;;;;;;8.47;4.27;;;;;;;1.92;95.83;101376.59;5031687;28;20216;-59
2022/01/07 00:37:50;;;;;;;9.50;4.77;;;;;;;1.92;96.25;101383.41;5031113;28;20029;-62
2022/01/07 00:40:19;;;;;;;8.77;4.03;;;;;;;1.90;97.62;101374.72;5031169;28;20095;-61
2022/01/07 00:42:51;;;;;;;9.03;4.33;;;;;;;1.87;98.32;101374.50;5024737;28;20371;-61
2022/01/07 00:45:21;;;;;;;8.67;3.97;;;;;;;1.85;98.74;101381.16;5018811;28;20029;-61
2022/01/07 00:47:47;;;;;;;11.33;4.80;;;;;;;1.79;99.02;101362.03;5030912;28;20508;-60
2022/01/07 00:53:34;;;;;;;;;;;;;;;1.74;100.00;101344.56;5030234;28;20124;-61
2022/01/07 00:55:59;;;;;;;12.10;4.63;;;;;;;1.68;100.00;101338.22;5024431;28;20000;-60
2022/01/07 00:58:25;;;;;;;8.37;4.67;;;;;;;1.67;100.00;101325.31;5030189;28;20029;-61
2022/01/07 01:00:50;;;;;;;9.37;4.73;;;;;;;1.63;100.00;101324.19;5017768;28;20404;-61
2022/01/07 01:03:15;;;;;;;15.83;5.10;;;;;;;1.62;100.00;101313.84;5031134;28;20531;-61
2022/01/07 01:05:42;;;;;;;11.23;5.00;;;;;;;1.60;100.00;101313.72;5025320;28;20030;-61
2022/01/07 01:08:08;;;;;;;12.10;4.87;;;;;;;1.62;100.00;101321.53;5029840;28;20025;-59
2022/01/07 01:10:33;;;;;;;9.37;4.67;;;;;;;1.63;100.00;101311.41;5030392;28;20088;-61
2022/01/07 01:12:59;;;;;;;8.10;4.97;;;;;;;1.66;100.00;101310.75;5030834;28;20033;-61
2022/01/07 01:15:26;;;;;;;10.60;4.37;;;;;;;1.67;100.00;101305.75;5023820;28;20052;-61
2022/01/07 01:17:53;;;;;;;8.23;4.20;;;;;;;1.68;100.00;101307.53;5028297;28;20053;-61
2022/01/07 01:20:19;;;;;;;7.60;4.30;;;;;;;1.70;100.00;101301.63;5030145;28;20104;-60
2022/01/07 01:22:45;;;;;;;7.37;3.97;;;;;;;1.72;100.00;101300.09;5030637;28;20421;-61
2022/01/07 01:25:11;;;;;;;9.13;4.40;;;;;;;1.72;99.47;101302.66;5030362;28;20029;-61
2022/01/07 01:27:37;;;;;;;10.43;4.60;;;;;;;1.73;99.27;101294.19;5030450;28;20088;-61
2022/01/07 01:30:05;;;;;;;8.67;4.40;;;;;;;1.72;98.58;101283.09;5027221;28;20059;-61
2022/01/07 01:32:31;;;;;;;12.87;4.00;;;;;;;1.74;98.56;101280.66;5030277;28;20025;-61
2022/01/07 01:34:56;;;;;;;9.33;4.50;;;;;;;1.73;98.95;101272.09;5030096;28;20489;-61
2022/01/07 01:37:22;;;;;;;9.03;4.07;;;;;;;1.74;98.78;101273.00;5030154;28;20025;-60
2022/01/07 01:39:47;;;;;;;10.73;4.33;;;;;;;1.75;98.33;101278.22;5029866;28;20187;-60
2022/01/07 01:42:13;;;;;;;7.03;3.47;;;;;;;1.76;98.11;101277.44;5026879;28;20530;-60
2022/01/07 01:44:38;;;;;;;6.07;3.53;;;;;;;1.77;98.84;101271.56;5030096;28;20025;-59
2022/01/07 01:47:04;;;;;;;9.43;4.03;;;;;;;1.79;98.00;101264.00;5030020;28;20508;-61
2022/01/07 01:49:30;;;;;;;8.50;3.70;;;;;;;1.81;98.08;101262.47;5029467;28;20021;-60
2022/01/07 01:51:55;;;;;;;7.57;3.57;;;;;;;1.80;97.88;101248.78;5023386;28;20033;-59
2022/01/07 01:54:21;;;;;;;8.53;3.70;;;;;;;1.81;97.60;101247.13;5026225;28;20029;-60
2022/01/07 01:56:47;;;;;;;5.00;3.40;;;;;;;1.83;98.08;101240.47;5022974;28;20025;-60
2022/01/07 01:59:13;;;;;;;8.33;3.70;;;;;;;1.85;97.05;101235.47;5029707;28;20014;-61
2022/01/07 02:01:40;;;;;;;6.17;3.80;;;;;;;1.87;97.15;101236.47;5029934;28;20026;-61
2022/01/07 02:07:42;;;;;;;8.00;3.30;;;;;;;1.89;96.79;101217.03;5022836;28;20402;-61
2022/01/07 02:10:11;;;;;;;6.78;2.97;;;;;;;1.90;96.14;101218.78;5029378;28;20080;-60
2022/01/07 02:12:37;;;;;;;11.23;3.57;;;;;;;1.91;96.15;101224.00;5022845;28;20064;-61
2022/01/07 02:15:03;;;;;;;8.83;3.03;;;;;;;1.94;95.79;101219.91;5029699;28;20029;-59
2022/01/07 02:17:28;;;;;;;9.07;3.10;;;;;;;1.97;95.58;101212.44;5029281;28;20490;-60
2022/01/07 02:19:55;;;;;;;10.57;3.10;;;;;;;1.96;95.60;101211.56;5027521;28;20077;-61
2022/01/07 02:22:21;;;;;;;7.57;3.20;;;;;;;1.99;95.66;101221.13;5029386;28;20080;-61
2022/01/07 02:24:48;;;;;;;5.87;2.33;;;;;;;1.99;96.72;101223.69;5029492;28;20029;-61
2022/01/07 02:27:15;;;;;;;9.37;2.83;;;;;;;1.98;97.47;101215.13;5029394;28;20104;-61
2022/01/07 02:29:44;;;;;;;4.83;2.60;;;;;;;1.97;97.55;101220.13;5029267;28;20071;-61
2022/01/07 02:32:09;;;;;;;9.30;3.00;;;;;;;1.97;97.84;101213.34;5046787;28;20037;-60
2022/01/07 02:34:34;;;;;;;5.17;3.10;;;;;;;1.96;98.96;101208.13;5049008;28;20044;-61
2022/01/07 02:37:00;;;;;;;8.20;2.60;;;;;;;1.92;99.52;101213.00;5049572;28;20112;-61
2022/01/07 02:39:25;;;;;;;6.93;2.77;;;;;;;1.92;100.00;101199.34;5049275;28;20108;-60
2022/01/07 02:41:50;;;;;;;6.07;2.67;;;;;;;1.89;100.00;101210.22;5049337;28;20043;-61
2022/01/07 02:44:16;;;;;;;6.70;2.53;;;;;;;1.85;100.00;101202.22;5046934;28;20037;-61
2022/01/07 02:46:41;;;;;;;5.83;2.43;;;;;;;1.79;100.00;101193.34;5048540;28;20029;-60
2022/01/07 02:49:12;;;;;;;8.47;3.20;;;;;;;1.76;100.00;101190.53;5049074;28;20031;-61
2022/01/07 02:51:38;;;;;;;6.28;2.97;;;;;;;1.73;100.00;101197.09;5048781;28;20029;-61
2022/01/07 02:54:05;;;;;;;10.23;3.20;;;;;;;1.69;100.00;101185.78;5049059;28;20021;-60
2022/01/07 02:56:31;;;;;;;7.43;2.87;;;;;;;1.65;100.00;101188.88;5046935;28;20416;-60
2022/01/07 02:58:57;;;;;;;8.70;3.20;;;;;;;1.64;100.00;101187.97;5047849;28;20050;-60
2022/01/07 03:01:22;;;;;;;8.90;2.80;;;;;;;1.59;100.00;101181.63;5049001;28;20488;-59
2022/01/07 03:03:48;;;;;;;10.53;3.80;;;;;;;1.55;100.00;101182.19;5048862;28;20095;-60
2022/01/07 03:06:13;;;;;;;7.60;3.37;;;;;;;1.49;100.00;101176.63;5048962;28;20028;-62
2022/01/07 03:08:38;;;;;;;13.33;3.27;;;;;;;1.46;100.00;101176.41;5038384;28;20022;-60
2022/01/07 03:11:04;;;;;;;9.30;3.70;;;;;;;1.42;100.00;101171.03;5040472;28;20037;-61
2022/01/07 03:13:29;;;;;;;7.73;4.00;;;;;;;1.35;100.00;101170.50;5048777;28;20056;-60
2022/01/07 03:15:54;;;;;;;8.57;3.67;;;;;;;1.33;100.00;101155.06;5048937;28;20064;-62
2022/01/07 03:18:20;;;;;;;10.53;4.50;;;;;;;1.15;100.00;101155.44;5048874;28;20104;-59
2022/01/07 03:20:45;;;;;;;6.93;3.90;;;;;;;1.11;100.00;101157.66;5048828;28;20481;-60
2022/01/07 03:23:12;;;;;;;5.43;3.83;;;;;;;1.04;100.00;101156.31;5044512;28;20432;-62
2022/01/07 03:25:42;;;;;;;6.53;4.10;;;;;;;1.03;100.00;101146.84;5052638;28;20029;-60
2022/01/07 03:28:08;;;;;;;5.90;3.87;;;;;;;0.99;100.00;101149.97;5052603;28;20025;-62
2022/01/07 03:30:34;;;;;;;6.87;4.53;;;;;;;1.00;100.00;101149.19;5045233;28;20507;-60
2022/01/07 03:32:59;;;;;;;13.93;4.63;;;;;;;0.98;100.00;101145.63;5032554;28;20021;-60
2022/01/07 03:35:25;;;;;;;8.50;4.73;;;;;;;0.98;100.00;101145.63;5030450;28;20025;-59
2022/01/07 03:37:51;;;;;;;10.20;4.70;;;;;;;0.95;100.00;101147.16;5020477;28;20052;-60
2022/01/07 03:40:18;;;;;;;8.57;4.03;;;;;;;0.94;100.00;101141.94;5032749;28;20036;-60
2022/01/07 03:42:44;;;;;;;9.90;4.63;;;;;;;0.93;100.00;101143.63;5032332;28;20065;-61
2022/01/07 03:45:12;;;;;;;11.03;4.57;;;;;;;0.94;100.00;101145.38;5026146;28;20033;-60
2022/01/07 03:47:38;;;;;;;10.07;5.10;;;;;;;0.91;100.00;101145.16;5030445;28;20358;-61
2022/01/07 03:50:06;;;;;;;11.30;5.10;;;;;;;0.94;100.00;101135.19;5014004;28;20017;-61
2022/01/07 03:52:32;;;;;;;10.10;4.93;;;;;;;0.95;100.00;101136.06;5032168;28;20052;-61
2022/01/07 03:54:57;;;;;;;9.67;5.23;;;;;;;0.98;100.00;101135.41;5025677;28;20026;-61
2022/01/07 03:57:23;;;;;;;7.53;4.93;;;;;;;0.98;100.00;101125.19;5031921;28;20501;-61
2022/01/07 03:59:50;;;;;;;10.23;5.73;;;;;;;0.98;100.00;101120.97;5029566;28;20036;-60
2022/01/07 04:02:16;;;;;;;9.20;5.40;;;;;;;0.99;100.00;101119.34;5032288;28;20021;-61
2022/01/07 04:04:41;;;;;;;7.47;5.20;;;;;;;0.96;100.00;101114.88;5031599;28;20017;-60
2022/01/07 04:07:07;;;;;;;10.70;5.67;;;;;;;0.97;100.00;101108.13;5031844;28;20215;-60
2022/01/07 04:09:32;;;;;;;8.40;5.20;;;;;;;0.99;100.00;101107.44;5031595;28;20410;-59
2022/01/07 04:11:59;;;;;;;9.97;5.60;;;;;;;0.99;100.00;101111.69;5044152;28;20148;-59
2022/01/07 04:14:25;;;;;;;9.37;5.67;;;;;;;0.98;100.00;101107.31;5047173;28;20216;-61
2022/01/07 04:16:51;;;;;;;7.13;5.23;;;;;;;0.98;100.00;101098.00;5024929;28;20013;-60
2022/01/07 04:19:16;;;;;;;8.73;6.13;;;;;;;1.01;100.00;101098.22;5031830;28;20355;-60
2022/01/07 04:21:42;;;;;;;11.37;6.23;;;;;;;1.00;100.00;101108.34;5031470;28;20489;-61
2022/01/07 04:24:07;;;;;;;11.33;6.30;;;;;;;1.02;100.00;101109.34;5028035;28;20037;-60
2022/01/07 04:26:33;;;;;;;8.70;5.57;;;;;;;1.01;100.00;101107.56;5031426;28;20532;-62
2022/01/07 04:28:58;;;;;;;9.57;5.23;;;;;;;1.00;100.00;101098.13;5028980;28;20037;-59
2022/01/07 04:31:24;;;;;;;12.30;6.37;;;;;;;1.03;100.00;101098.34;5027203;28;20080;-60
2022/01/07 04:33:50;;;;;;;8.57;6.00;;;;;;;1.03;100.00;101098.34;5030178;28;20112;-61
2022/01/07 04:36:15;;;;;;;8.80;5.83;;;;;;;1.04;100.00;101111.22;5026686;28;20114;-59
2022/01/07 04:38:41;;;;;;;11.47;6.50;;;;;;;1.08;100.00;101108.13;5031215;28;20025;-60
2022/01/07 04:41:06;;;;;;;8.83;5.47;;;;;;;1.09;100.00;101111.59;5031318;28;20025;-60
2022/01/07 04:43:31;;;;;;;10.83;6.47;;;;;;;1.12;100.00;101116.91;5031569;28;20079;-59
2022/01/07 04:45:57;;;;;;;8.10;6.53;;;;;;;1.13;100.00;101110.16;5024643;28;20025;-61
2022/01/07 04:48:22;;;;;;;10.83;7.20;;;;;;;1.16;100.00;101101.06;5024627;28;20037;-60
2022/01/07 04:50:47;;;;;;;11.53;6.90;;;;;;;1.18;100.00;101104.63;5028918;28;20083;-61
2022/01/07 04:53:13;;;;;;;11.60;7.23;;;;;;;1.21;100.00;101103.06;5030764;28;20470;-61
2022/01/07 04:55:38;;;;;;;8.73;6.83;;;;;;;1.23;100.00;101092.19;5031097;28;20037;-61
2022/01/07 04:58:06;;;;;;;11.47;7.37;;;;;;;1.25;100.00;101095.75;5030864;28;20033;-61
2022/01/07 05:00:32;;;;;;;10.03;7.80;;;;;;;1.26;100.00;101086.44;5030688;28;20017;-59
2022/01/07 05:02:58;;;;;;;8.33;7.20;;;;;;;1.27;100.00;101088.19;5024205;28;20389;-61
2022/01/07 05:05:23;;;;;;;8.63;7.27;;;;;;;1.28;100.00;101077.19;5030434;28;20025;-60
2022/01/07 05:07:49;;;;;;;9.67;8.00;;;;;;;1.30;100.00;101084.19;5030622;28;20025;-60
2022/01/07 05:10:15;;;;;;;11.47;7.20;;;;;;;1.32;100.00;101079.19;5030903;28;20176;-61
2022/01/07 05:12:42;;;;;;;11.17;8.37;;;;;;;1.34;100.00;101084.41;5030534;28;20334;-58
2022/01/07 05:15:09;;;;;;;8.87;7.70;;;;;;;1.37;100.00;101080.44;5030856;28;20636;-60
2022/01/07 05:17:34;;;;;;;9.37;7.97;;;;;;;1.36;100.00;101063.34;5021953;28;20446;-61
2022/01/07 05:20:00;;;;;;;12.60;8.00;;;;;;;1.40;100.00;101074.66;5010142;28;20029;-61
2022/01/07 05:22:25;;;;;;;9.20;8.17;;;;;;;1.42;100.00;101063.78;5030363;28;20061;-61
2022/01/07 05:24:51;;;;;;;11.20;9.10;;;;;;;1.46;100.00;101066.56;5030406;28;20017;-60
2022/01/07 05:27:16;;;;;;;14.40;9.47;;;;;;;1.48;100.00;101064.97;5030196;28;20061;-60
2022/01/07 05:29:42;;;;;;;11.97;9.07;;;;;;;1.49;100.00;101072.78;5030169;28;20433;-61
2022/01/07 05:32:08;;;;;;;13.80;10.00;;;;;;;1.50;100.00;101056.66;5023481;28;20193;-61
2022/01/07 05:34:34;;;;;;;11.97;9.73;;;;;;;1.53;100.00;101067.09;5030138;28;20129;-61
2022/01/07 05:37:00;;;;;;;12.63;10.00;;;;;;;1.55;100.00;101064.66;5021536;28;20108;-60
2022/01/07 05:39:25;;;;;;;13.30;10.20;;;;;;;1.56;100.00;101064.75;5030085;28;20025;-59
2022/01/07 05:41:51;;;;;;;10.37;9.37;;;;;;;1.60;100.00;101062.44;5025332;28;20515;-61
2022/01/07 05:44:16;;;;;;;14.67;9.30;;;;;;;1.62;100.00;101066.88;5029967;28;20026;-61
2022/01/07 05:46:42;;;;;;;11.60;10.10;;;;;;;1.65;100.00;101061.13;5023225;28;20029;-60
2022/01/07 05:49:07;;;;;;;11.73;9.80;;;;;;;1.66;100.00;101061.22;5029998;28;20377;-61
2022/01/07 05:51:33;;;;;;;11.57;9.53;;;;;;;1.68;100.00;101059.66;5023286;28;20100;-61
2022/01/07 05:53:58;;;;;;;13.17;10.47;;;;;;;1.71;100.00;101060.66;5030011;28;20029;-60
2022/01/07 05:56:24;;;;;;;12.27;10.57;;;;;;;1.74;100.00;101053.22;5023877;28;20110;-61
2022/01/07 05:58:49;;;;;;;13.10;10.43;;;;;;;1.74;100.00;101054.13;5029922;28;20025;-59
2022/01/07 06:01:15;;;;;;;12.10;9.70;;;;;;;1.78;100.00;101052.66;5023350;28;20033;-61
2022/01/07 06:03:41;;;;;;;14.10;9.47;;;;;;;1.79;100.00;101049.31;5029705;28;20028;-61
2022/01/07 06:06:07;;;;;;;15.77;9.50;;;;;;;1.81;100.00;101047.75;5027619;28;20034;-61
2022/01/07 06:08:32;;;;;;;13.83;10.00;;;;;;;1.79;100.00;101037.44;5027345;28;20025;-61
2022/01/07 06:10:57;;;;;;;11.10;9.73;;;;;;;1.82;100.00;101053.78;5029674;28;20034;-61
2022/01/07 06:13:23;;;;;;;15.27;10.00;;;;;;;1.80;100.00;101054.53;5029447;28;20040;-59
2022/01/07 06:15:48;;;;;;;13.70;10.10;;;;;;;1.84;100.00;101060.75;5029982;28;20028;-62
2022/01/07 06:18:14;;;;;;;13.63;10.60;;;;;;;1.87;100.00;101062.66;5029950;28;20072;-60
2022/01/07 06:20:39;;;;;;;15.13;10.53;;;;;;;1.87;100.00;101055.84;5027337;28;20079;-61
2022/01/07 06:23:04;;;;;;;12.83;9.70;;;;;;;1.89;100.00;101059.41;5027590;28;20025;-61
2022/01/07 06:25:30;;;;;;;14.13;10.20;;;;;;;1.89;100.00;101061.09;5024986;28;20393;-62
2022/01/07 06:27:55;;;;;;;12.43;10.73;;;;;;;1.90;100.00;101063.75;5029540;28;20032;-61
2022/01/07 06:30:20;;;;;;;12.80;9.80;;;;;;;1.92;100.00;101054.50;5029200;28;20494;-60
2022/01/07 06:32:46;;;;;;;13.73;10.60;;;;;;;1.95;100.00;101058.06;5029578;28;20040;-61
2022/01/07 06:35:12;;;;;;;13.10;9.70;;;;;;;1.98;100.00;101058.31;5025116;28;20021;-61
2022/01/07 06:37:38;;;;;;;15.97;10.30;;;;;;;2.00;100.00;101059.28;5029243;28;20390;-61
2022/01/07 06:40:05;;;;;;;14.47;10.30;;;;;;;2.02;100.00;101058.63;5029388;28;20450;-61
2022/01/07 06:42:31;;;;;;;17.00;11.13;;;;;;;2.04;100.00;101057.06;5029148;28;20022;-59
2022/01/07 06:44:57;;;;;;;13.50;10.13;;;;;;;2.08;100.00;101065.84;5029314;28;20390;-59
2022/01/07 06:47:22;;;;;;;15.40;11.13;;;;;;;2.11;100.00;101067.69;5027241;28;20025;-60
2022/01/07 06:49:48;;;;;;;16.07;10.77;;;;;;;2.11;100.00;101057.47;5029259;28;20037;-59
2022/01/07 06:52:13;;;;;;;16.60;10.90;;;;;;;2.14;100.00;101053.47;5028932;28;20458;-60
2022/01/07 06:54:38;;;;;;;15.57;10.50;;;;;;;2.18;100.00;101057.13;5029070;28;20083;-60
2022/01/07 06:57:04;;;;;;;17.00;10.87;;;;;;;2.20;100.00;101047.00;5030071;28;20069;-59
2022/01/07 06:59:29;;;;;;;13.67;10.40;;;;;;;2.22;100.00;101050.56;5033189;28;20075;-61
2022/01/07 07:01:54;;;;;;;12.37;9.70;;;;;;;2.24;100.00;101051.56;5026242;28;20438;-61
2022/01/07 07:04:20;;;;;;;13.17;9.87;;;;;;;2.28;100.00;101045.88;5032649;28;20490;-59
2022/01/07 07:06:45;;;;;;;13.30;10.80;;;;;;;2.29;100.00;101045.09;5033211;28;20072;-60
2022/01/07 07:09:11;;;;;;;15.97;10.90;;;;;;;2.31;100.00;101055.41;5032578;28;20041;-59
2022/01/07 07:11:37;;;;;;;16.80;10.77;;;;;;;2.32;100.00;101062.31;5032742;28;20033;-61
2022/01/07 07:14:02;;;;;;;15.37;9.87;;;;;;;2.33;100.00;101049.63;5028548;28;20033;-61
2022/01/07 07:16:28;;;;;;;16.23;10.30;;;;;;;2.34;100.00;101063.31;5033002;28;20040;-61
2022/01/07 07:18:53;;;;;;;15.03;10.97;;;;;;;2.36;100.00;101064.28;5032403;28;20112;-61
2022/01/07 07:21:19;;;;;;;13.77;11.07;;;;;;;2.38;100.00;101066.19;5032999;28;20457;-61
2022/01/07 07:23:44;;;;;;;12.63;10.50;;;;;;;2.42;100.00;101058.72;5032706;28;20108;-62
2022/01/07 07:26:09;;;;;;;13.43;10.27;;;;;;;2.42;100.00;101067.28;5032376;28;20021;-61
2022/01/07 07:28:36;;;;;;;13.47;10.60;;;;;;;2.44;100.00;101070.84;5030663;28;20039;-62
2022/01/07 07:31:10;;;;;;;14.07;10.30;;;;;;;2.45;100.00;101062.38;5031949;28;20129;-59
2022/01/07 07:36:27;;;;;;;13.67;10.00;;;;;;;2.49;100.00;101061.81;5028367;28;20040;-61
2022/01/07 07:39:03;;;;;;;15.80;10.47;;;;;;;2.51;100.00;101062.81;5025456;28;20084;-61
2022/01/07 07:41:30;;;;;;;16.00;11.00;;;;;;;2.53;100.00;101062.91;5021108;28;20029;-61
2022/01/07 07:43:57;;;;;;;11.97;10.80;;;;;;;2.55;100.00;101066.47;5028219;28;20033;-60
2022/01/07 07:46:23;;;;;;;16.37;10.57;;;;;;;2.55;100.00;101061.34;5030844;28;20544;-60
2022/01/07 07:48:51;;;;;;;14.57;10.33;;;;;;;2.57;100.00;101059.78;5029436;28;20156;-61
2022/01/07 07:51:17;;;;;;;15.27;11.00;;;;;;;2.59;100.00;101055.63;5029921;28;20676;-62
2022/01/07 07:53:42;;;;;;;11.70;10.20;;;;;;;2.61;100.00;101048.06;5032084;28;20033;-62
2022/01/07 07:56:10;;;;;;;17.03;10.47;;;;;;;2.61;100.00;101041.28;5031889;28;20501;-61
2022/01/07 07:58:36;;;;;;;15.83;10.47;;;;;;;2.63;100.00;101051.63;5031778;28;20056;-61
2022/01/07 08:01:01;;;;;;;15.70;10.00;;;;;;;2.63;100.00;101044.84;5032268;28;20401;-62
2022/01/07 08:03:26;;;;;;;15.90;10.63;;;;;;;2.63;100.00;101052.50;5031594;28;20377;-62
2022/01/07 08:05:52;;;;;;;14.70;9.93;;;;;;;2.69;100.00;101058.81;5028113;28;20032;-60
2022/01/07 08:08:17;;;;;;;15.20;10.33;;;;;;;2.68;100.00;101063.06;5031461;28;20580;-60
2022/01/07 08:10:52;;;;;;;13.60;10.13;;;;;;;2.72;100.00;101051.34;5031734;28;20091;-61
2022/01/07 08:15:58;;;;;;;16.13;9.70;;;;;;;2.76;100.00;101049.13;5024349;28;20033;-60
2022/01/07 08:18:31;;;;;;;16.87;9.67;;;;;;;2.77;100.00;101037.19;5030317;28;20033;-62
2022/01/07 08:21:00;;;;;;;15.53;10.30;;;;;;;2.78;100.00;101048.31;5018217;28;20428;-61
2022/01/07 08:23:26;;;;;;;12.00;9.63;;;;;;;2.80;100.00;101039.06;5031801;28;20048;-61
2022/01/07 08:25:51;;;;;;;15.63;9.70;;;;;;;2.84;100.00;101034.25;5024271;28;20026;-61
2022/01/07 08:28:18;;;;;;;12.50;9.37;;;;;;;2.84;100.00;101039.38;5030357;28;20068;-61
2022/01/07 08:36:16;;;;;;;12.90;9.53;;;;;;;2.88;100.00;101036.25;5031419;28;20048;-59
2022/01/07 08:38:42;;;;;;;11.10;9.27;;;;;;;2.87;100.00;101043.81;5031329;28;20378;-60
2022/01/07 08:41:08;;;;;;;14.63;9.80;;;;;;;2.87;100.00;101044.72;5031123;28;20420;-61
2022/01/07 08:43:36;;;;;;;13.30;8.87;;;;;;;2.90;100.00;101036.34;5023656;28;20027;-62
2022/01/07 08:46:02;;;;;;;13.73;9.07;;;;;;;2.94;100.00;101035.78;5027505;28;20030;-60
2022/01/07 08:48:29;;;;;;;12.40;8.43;;;;;;;2.96;100.00;101038.44;5031090;28;20405;-61
2022/01/07 08:50:54;;;;;;;15.77;9.37;;;;;;;2.97;100.00;101038.53;5030819;28;20029;-61
2022/01/07 08:53:20;;;;;;;11.47;9.03;;;;;;;2.99;100.00;101049.75;5031042;28;20029;-61
2022/01/07 08:55:46;;;;;;;14.77;9.10;;;;;;;3.02;100.00;101050.75;5025714;28;20025;-61
2022/01/07 08:58:11;;;;;;;13.13;9.40;;;;;;;3.02;100.00;101053.31;5028489;28;20033;-61
2022/01/07 09:00:37;;;;;;;14.97;9.63;;;;;;;3.04;100.00;101060.28;5030841;28;20022;-61
2022/01/07 09:03:03;;;;;;;14.60;8.93;;;;;;;3.04;100.00;101059.44;5030712;28;20029;-61
2022/01/07 09:05:28;;;;;;;12.43;9.50;;;;;;;3.07;100.00;101070.75;5030829;28;20432;-61
2022/01/07 09:07:53;;;;;;;11.90;9.03;;;;;;;3.08;100.00;101063.94;5025836;28;20029;-61
2022/01/07 09:10:19;;;;;;;12.67;9.20;;;;;;;3.11;100.00;101049.66;5024341;28;20305;-61
2022/01/07 09:12:45;;;;;;;12.17;8.63;;;;;;;3.14;100.00;101060.91;5030294;28;20038;-61
2022/01/07 09:15:11;;;;;;;13.30;9.17;;;;;;;3.14;100.00;101040.41;5030868;28;20017;-61
2022/01/07 09:17:36;;;;;;;10.73;8.70;;;;;;;3.16;100.00;101054.22;5030647;28;20029;-58
2022/01/07 09:20:04;;;;;;;14.50;9.67;;;;;;;3.17;100.00;101050.84;5025437;28;20025;-60
2022/01/07 09:22:29;;;;;;;14.40;8.67;;;;;;;3.18;100.00;101042.41;5030780;28;20501;-59
2022/01/07 09:24:54;;;;;;;11.53;8.33;;;;;;;3.17;100.00;101043.19;5030393;28;20029;-60
2022/01/07 09:27:20;;;;;;;13.73;7.80;;;;;;;3.17;100.00;101049.19;5030590;28;20029;-60
2022/01/07 09:29:46;;;;;;;15.87;8.80;;;;;;;3.19;100.00;101046.72;5023771;28;20025;-60
2022/01/07 09:32:12;;;;;;;12.33;8.40;;;;;;;3.18;100.00;101044.97;5035214;28;20110;-59
2022/01/07 09:34:37;;;;;;;13.97;8.83;;;;;;;3.17;100.00;101043.19;5049824;28;20116;-60
2022/01/07 09:37:04;;;;;;;12.43;8.40;;;;;;;3.21;100.00;101053.75;5046868;28;20125;-60
2022/01/07 09:39:31;;;;;;;11.90;8.30;;;;;;;3.27;100.00;101058.38;5040232;28;20488;-60
2022/01/07 09:41:57;;;;;;;9.03;7.00;;;;;;;3.31;100.00;101055.22;5050148;28;20056;-61
2022/01/07 09:44:22;;;;;;;11.43;8.00;;;;;;;3.34;100.00;101042.63;5046027;28;20517;-59
2022/01/07 09:46:47;;;;;;;10.10;7.53;;;;;;;3.41;100.00;101048.13;5049838;28;20060;-61
2022/01/07 09:49:13;;;;;;;11.33;7.23;;;;;;;3.41;100.00;101043.00;5042762;28;20021;-62
2022/01/07 09:51:40;;;;;;;10.43;7.53;;;;;;;3.43;100.00;101044.00;5049905;28;20036;-61
2022/01/07 09:54:06;;;;;;;9.50;6.50;;;;;;;3.46;100.00;101032.28;5049863;28;20031;-61
2022/01/07 09:56:32;;;;;;;9.30;6.17;;;;;;;3.54;100.00;101042.13;5046595;28;20096;-61
2022/01/07 09:58:58;;;;;;;9.23;6.70;;;;;;;3.58;100.00;101037.28;5043525;28;20120;-61
2022/01/07 10:01:25;;;;;;;11.20;6.57;;;;;;;3.62;100.00;101032.38;5024935;28;20532;-62
2022/01/07 10:03:51;;;;;;;10.37;6.37;;;;;;;3.67;100.00;101031.00;5049853;28;20028;-59
2022/01/07 10:06:18;;;;;;;13.23;6.57;;;;;;;3.68;100.00;101037.88;5049367;28;20035;-61
2022/01/07 10:08:46;;;;;;;13.07;6.50;;;;;;;3.72;100.00;101027.03;5040433;28;20029;-61
2022/01/07 10:11:19;;;;;;;9.93;6.00;;;;;;;3.73;100.00;101026.22;5050018;28;20052;-60
2022/01/07 10:13:49;;;;;;;9.53;5.97;;;;;;;3.75;100.00;101034.91;5049870;28;20044;-62
2022/01/07 10:16:20;;;;;;;9.02;6.05;;;;;;;3.75;100.00;101027.22;5049801;28;20072;-60
2022/01/07 10:18:47;;;;;;;9.50;5.30;;;;;;;3.77;100.00;101028.22;5049355;28;20027;-61
2022/01/07 10:21:14;;;;;;;7.53;5.03;;;;;;;3.78;100.00;101023.97;5046666;28;20025;-61
2022/01/07 10:23:40;;;;;;;5.90;5.00;;;;;;;3.77;100.00;101023.06;5039143;28;20049;-61
2022/01/07 10:26:13;;;;;;;8.37;5.47;;;;;;;3.78;100.00;101021.41;5049210;28;20496;-61
2022/01/07 10:28:38;;;;;;;8.57;5.20;;;;;;;3.78;100.00;101019.72;5049192;28;20036;-61
2022/01/07 10:31:03;;;;;;;8.53;4.97;;;;;;;3.79;100.00;101020.59;5048897;28;20021;-60
2022/01/07 10:33:34;;;;;;;9.00;4.80;;;;;;;3.81;100.00;101021.59;5047374;28;20061;-60
2022/01/07 10:36:06;;;;;;;11.35;5.70;;;;;;;3.86;100.00;101006.47;5048946;28;20446;-61
2022/01/07 10:38:31;;;;;;;;;;;;;;;3.90;100.00;101016.16;5045363;28;20026;-61
2022/01/07 10:41:00;;;;;;;8.40;5.43;;;;;;;3.93;100.00;101018.91;5049062;28;19908;-61
2022/01/07 10:43:32;;;;;;;7.30;4.67;;;;;;;3.96;100.00;101013.94;5049037;28;20504;-60
2022/01/07 10:46:01;;;;;;;7.03;4.50;;;;;;;4.00;100.00;101009.91;5048116;28;20033;-60
2022/01/07 10:48:39;;;;;;;11.93;5.00;;;;;;;4.05;100.00;101009.41;5048756;28;20115;-61
2022/01/07 10:51:08;;;;;;;9.73;4.67;;;;;;;4.13;100.00;101006.41;5048740;28;20461;-61
2022/01/07 10:53:33;;;;;;;8.90;4.83;;;;;;;4.19;100.00;101002.53;5049111;28;20481;-60
2022/01/07 10:56:01;;;;;;;9.27;5.03;;;;;;;4.24;100.00;101000.28;5042383;28;20055;-61
2022/01/07 10:58:27;;;;;;;8.37;4.30;;;;;;;4.28;100.00;101002.22;5044447;28;20025;-61
2022/01/07 11:00:53;;;;;;;10.03;4.90;;;;;;;4.31;100.00;100993.81;5046610;28;20079;-61
2022/01/07 11:03:18;;;;;;;8.40;4.43;;;;;;;4.36;100.00;100991.53;5048751;28;20037;-61
2022/01/07 11:05:44;;;;;;;7.90;3.83;;;;;;;4.42;100.00;100986.75;5048657;28;20029;-61
2022/01/07 11:08:14;;;;;;;8.97;4.17;;;;;;;4.46;100.00;100988.72;5048744;28;20040;-62
2022/01/07 11:10:41;;;;;;;8.90;4.23;;;;;;;4.47;100.00;100997.28;5039150;28;20033;-61
2022/01/07 11:13:07;;;;;;;7.53;4.30;;;;;;;4.41;100.00;100990.09;5041652;28;20029;-61
2022/01/07 11:15:33;;;;;;;7.20;4.27;;;;;;;4.37;100.00;100985.59;5050663;28;20035;-61
2022/01/07 11:17:58;;;;;;;8.37;4.27;;;;;;;4.40;100.00;100988.34;5048745;28;20548;-61
2022/01/07 11:20:24;;;;;;;8.97;4.40;;;;;;;4.41;100.00;100985.88;5049044;28;20025;-62
2022/01/07 11:22:51;;;;;;;9.23;4.30;;;;;;;4.44;100.00;100998.00;5047199;28;20111;-60
2022/01/07 11:25:17;;;;;;;12.60;5.40;;;;;;;4.44;100.00;100998.00;5038033;28;20428;-61
2022/01/07 11:27:47;;;;;;;7.63;4.20;;;;;;;4.46;100.00;100996.44;5048536;28;20028;-61
2022/01/07 11:30:15;;;;;;;7.97;3.97;;;;;;;4.40;100.00;101006.31;5040868;28;20049;-62
2022/01/07 11:32:44;;;;;;;7.93;4.67;;;;;;;4.30;100.00;100995.50;5048390;28;20106;-60
2022/01/07 11:35:19;;;;;;;9.03;4.40;;;;;;;4.18;100.00;100997.31;5044023;28;20029;-62